Pagina principală
METAR-TAF:

METAR-TAF

Aeroporturi :

Kosrae, Micronezia

Latitudine: 05-21N, longitudine: 162-57E, elevație: 3 m

Observații meteo curente

Raportul a fost făcut în urmă cu 14 ore și 52 de minute, la 01:50 UTC
Vânt 15 kt de la Est
Temperatură 31°C
Umiditate 66%
Presiune 1006 hPa
Vizibilitate: 16.1 km
Nori împrăștiați la o înălțime de 2100 picior, Cumulus congestus.
Nori fragmentați la o înălțime de 13000 picior
Nori fragmentați la o înălțime de 30000 picior

METAR: PTSA 180150Z COR 09015KT 10SM SCT021TCU BKN130 BKN300 31/24 A2972 RMK TCU NE LAST

Ora: 03:42 (16:42 UTC)

Prognoză

Raportul a fost făcut în urmă cu 17 ore și 22 de minute, la 23:20 UTC
Prognoză valabilă de la 18 ora 00 UTC la 18 ora 24 UTC
Vânt 12 kt de la Est
Vizibilitate: 10 km
Nori împrăștiați la o înălțime de 1900 picior
Nori împrăștiați la o înălțime de 6000 picior

TAF: PTSA 172320Z 1800/1824 08012KT P6SM SCT019 SCT060

Observații și prognoze meteo pentru peste 4.000 de aeroporturi (rapoarte METAR și TAF).

Stațiile disponibile sunt reprezentate pe hartă prin puncte galbene și roșii.

Țineți indicatorul mouse-ului pe punctul dorit pentru a vedea denumirea stației.

Apoi, faceți clic pentru a vedea observațiile și prognozele meteorologice.

Pentru a schimba harta: Pentru mărire, faceți clic pe butoanele verzi cu cruce neagră; pentru micșorare, pe butonul verde cu o liniuță; pentru hărți învecinate, pe săgețile verzi.


METAR-TAF: